createdAt,value
2022-08-04T00:01:26.900Z,48.21
2022-08-04T00:04:29.502Z,49.91
2022-08-04T00:07:08.652Z,48.53
2022-08-04T00:10:05.880Z,50.17
2022-08-04T00:12:39.703Z,49.49
2022-08-04T00:15:15.556Z,51.42
2022-08-04T00:17:56.139Z,51.03
2022-08-04T00:20:25.179Z,50.85
2022-08-04T00:22:52.939Z,53.11
2022-08-04T00:25:21.102Z,51.69
2022-08-04T00:27:49.370Z,51.58
2022-08-04T00:30:17.136Z,52.81
2022-08-04T00:32:45.087Z,51.90
2022-08-04T00:35:16.570Z,49.17
2022-08-04T00:37:45.550Z,49.67
2022-08-04T00:40:31.920Z,51.83
2022-08-04T00:43:05.501Z,50.17
2022-08-04T00:46:16.091Z,51.18
2022-08-04T00:48:54.961Z,51.84
2022-08-04T00:52:32.893Z,51.57
2022-08-04T00:55:13.370Z,51.44
2022-08-04T00:58:25.810Z,52.20
2022-08-04T01:00:59.866Z,52.57
2022-08-04T01:03:43.222Z,52.92
2022-08-04T01:06:36.292Z,52.29
2022-08-04T01:09:45.519Z,52.53
2022-08-04T01:12:53.533Z,52.31
2022-08-04T01:15:21.642Z,52.37
2022-08-04T01:18:09.608Z,51.77
2022-08-04T01:21:19.219Z,50.85
2022-08-04T01:24:10.319Z,50.71
2022-08-04T01:26:57.886Z,49.74
2022-08-04T01:29:43.943Z,49.71
2022-08-04T01:32:38.245Z,48.54
2022-08-04T01:35:21.537Z,48.97
2022-08-04T01:37:59.181Z,49.62
2022-08-04T01:40:27.509Z,47.96
2022-08-04T01:42:56.039Z,48.29
2022-08-04T01:45:24.970Z,48.64
2022-08-04T01:47:54.582Z,47.55
2022-08-04T01:50:23.678Z,47.40
2022-08-04T01:52:54.320Z,47.50
2022-08-04T01:55:23.511Z,47.75
2022-08-04T01:57:53.001Z,47.80
2022-08-04T02:00:27.050Z,46.91
2022-08-04T02:02:56.704Z,48.07
2022-08-04T02:05:26.409Z,49.21
2022-08-04T02:08:44.270Z,48.75
2022-08-04T02:11:22.561Z,48.92
2022-08-04T02:14:12.759Z,48.55
2022-08-04T02:16:52.709Z,48.39
2022-08-04T02:19:30.771Z,49.23
2022-08-04T02:22:08.970Z,49.35
2022-08-04T02:24:46.582Z,49.07
2022-08-04T02:27:15.279Z,49.07
2022-08-04T02:29:52.140Z,48.25
2022-08-04T02:32:27.650Z,48.09
2022-08-04T02:35:06.820Z,48.59
2022-08-04T02:37:35.619Z,48.63
2022-08-04T02:40:07.053Z,47.10
2022-08-04T02:42:35.371Z,48.61
2022-08-04T02:45:04.138Z,49.41
2022-08-04T02:48:29.478Z,48.61
2022-08-04T02:50:28.395Z,48.47
2022-08-04T02:53:01.392Z,48.72
2022-08-04T02:55:30.241Z,48.69
2022-08-04T02:58:03.372Z,49.47
2022-08-04T03:00:32.230Z,49.61
2022-08-04T03:03:22.691Z,48.00
2022-08-04T03:06:12.350Z,48.86
2022-08-04T03:08:43.120Z,48.75
2022-08-04T03:11:34.029Z,48.22
2022-08-04T03:14:20.552Z,48.91
2022-08-04T03:17:25.669Z,49.56
2022-08-04T03:20:15.261Z,49.98
2022-08-04T03:23:12.074Z,48.38
2022-08-04T03:26:24.368Z,49.36
2022-08-04T03:29:12.887Z,48.87
2022-08-04T03:32:18.311Z,49.21
2022-08-04T03:35:04.529Z,48.78
2022-08-04T03:38:02.918Z,49.16
2022-08-04T03:40:42.751Z,48.37
2022-08-04T03:43:58.242Z,48.76
2022-08-04T03:46:30.838Z,51.70
2022-08-04T03:49:17.579Z,49.33
2022-08-04T03:52:28.933Z,52.20
2022-08-04T03:55:33.019Z,50.77
2022-08-04T03:58:38.699Z,49.78
2022-08-04T04:01:24.999Z,50.25
2022-08-04T04:04:11.788Z,50.68
2022-08-04T04:06:52.896Z,50.56
2022-08-04T04:09:56.787Z,47.93
2022-08-04T04:12:49.964Z,49.97
2022-08-04T04:15:30.399Z,47.31
2022-08-04T04:18:29.450Z,47.00
2022-08-04T04:21:22.142Z,47.39
2022-08-04T04:24:18.100Z,46.23
2022-08-04T04:26:57.602Z,46.38
2022-08-04T04:29:47.390Z,46.26
2022-08-04T04:32:36.671Z,46.15
2022-08-04T04:35:29.859Z,46.07
2022-08-04T04:38:16.079Z,44.97
2022-08-04T04:41:10.700Z,45.36
2022-08-04T04:44:06.129Z,44.59
2022-08-04T04:46:54.972Z,44.34
2022-08-04T04:49:35.399Z,44.90
2022-08-04T04:52:09.241Z,43.47
2022-08-04T04:55:00.839Z,44.56
2022-08-04T04:57:54.109Z,44.07
2022-08-04T05:00:20.661Z,44.97
2022-08-04T05:03:28.068Z,45.86
2022-08-04T05:06:34.652Z,42.45
2022-08-04T05:09:37.000Z,41.75
2022-08-04T05:14:32.560Z,43.79
2022-08-04T05:15:26.398Z,40.77
2022-08-04T05:17:55.911Z,41.62
2022-08-04T05:20:31.328Z,42.41
2022-08-04T05:23:09.178Z,41.75
2022-08-04T05:25:59.543Z,39.83
2022-08-04T05:28:34.331Z,41.86
2022-08-04T05:31:20.741Z,39.88
2022-08-04T05:34:03.322Z,38.85
2022-08-04T05:36:41.391Z,39.07
2022-08-04T05:39:18.036Z,38.93
2022-08-04T05:41:55.102Z,38.10
2022-08-04T05:44:25.509Z,39.26
2022-08-04T05:46:56.865Z,38.26
2022-08-04T05:49:26.658Z,37.05
2022-08-04T05:51:56.879Z,37.35
2022-08-04T05:54:25.399Z,38.20
2022-08-04T05:56:54.139Z,36.20
2022-08-04T05:59:25.801Z,34.94
2022-08-04T06:01:57.631Z,35.45
2022-08-04T06:04:47.720Z,34.73
2022-08-04T06:07:15.689Z,34.62
2022-08-04T06:09:44.031Z,34.51
2022-08-04T06:12:16.152Z,34.82
2022-08-04T06:14:46.311Z,33.80
2022-08-04T06:18:32.162Z,33.88
2022-08-04T06:20:19.244Z,34.07
2022-08-04T06:22:53.139Z,34.93
2022-08-04T06:25:25.411Z,33.32
2022-08-04T06:27:53.679Z,32.42
2022-08-04T06:30:26.412Z,33.20
2022-08-04T06:33:03.847Z,32.17
2022-08-04T06:35:34.088Z,33.74
2022-08-04T06:38:03.260Z,33.65
2022-08-04T06:40:34.403Z,33.85
2022-08-04T06:43:04.852Z,31.58
2022-08-04T06:45:35.027Z,32.06
2022-08-04T06:48:05.809Z,32.76
2022-08-04T06:51:28.203Z,31.62
2022-08-04T06:53:26.475Z,29.73
2022-08-04T06:55:55.056Z,30.03
2022-08-04T06:58:23.471Z,30.38
2022-08-04T07:00:52.284Z,29.70
2022-08-04T07:03:21.943Z,29.06
2022-08-04T07:05:51.586Z,29.08
2022-08-04T07:08:20.964Z,29.92
2022-08-04T07:10:49.137Z,30.88
2022-08-04T07:13:18.166Z,30.14
2022-08-04T07:15:47.289Z,29.74
2022-08-04T07:18:15.167Z,29.12
2022-08-04T07:20:44.638Z,30.51
2022-08-04T07:23:18.027Z,28.04
2022-08-04T07:26:01.125Z,29.49
2022-08-04T07:28:42.345Z,28.89
2022-08-04T07:31:33.196Z,28.46
2022-08-04T07:34:17.414Z,29.40
2022-08-04T07:36:55.690Z,28.76
2022-08-04T07:39:28.133Z,28.92
2022-08-04T07:42:02.549Z,28.00
2022-08-04T07:44:35.730Z,28.13
2022-08-04T07:47:06.200Z,27.85
2022-08-04T07:49:54.351Z,26.16
2022-08-04T07:52:23.268Z,26.85
2022-08-04T07:54:51.918Z,26.56
2022-08-04T07:57:39.815Z,26.48
2022-08-04T08:00:10.733Z,25.90
2022-08-04T08:02:39.628Z,25.46
2022-08-04T08:05:10.720Z,24.55
2022-08-04T08:07:50.706Z,24.85
2022-08-04T08:10:24.119Z,25.06
2022-08-04T08:12:53.270Z,25.49
2022-08-04T08:15:22.067Z,24.94
2022-08-04T08:17:58.861Z,24.09
2022-08-04T08:20:32.718Z,23.79
2022-08-04T08:23:02.266Z,25.40
2022-08-04T08:25:33.906Z,23.85
2022-08-04T08:28:04.759Z,24.39
2022-08-04T08:30:36.278Z,24.32
2022-08-04T08:33:10.239Z,22.15
2022-08-04T08:36:02.820Z,24.37
2022-08-04T08:38:47.999Z,21.95
2022-08-04T08:41:21.569Z,22.91
2022-08-04T08:44:05.944Z,22.36
2022-08-04T08:46:49.270Z,23.24
2022-08-04T08:50:02.515Z,22.91
2022-08-04T08:52:57.499Z,23.29
2022-08-04T08:55:54.230Z,23.03
2022-08-04T08:58:55.506Z,23.43
2022-08-04T09:01:44.928Z,22.70
2022-08-04T09:04:54.671Z,21.64
2022-08-04T09:07:49.460Z,23.38
2022-08-04T09:10:42.702Z,20.75
2022-08-04T09:13:30.890Z,21.42
2022-08-04T09:16:04.469Z,23.12
2022-08-04T09:18:43.471Z,22.37
2022-08-04T09:21:34.350Z,22.51
2022-08-04T09:24:35.078Z,21.94
2022-08-04T09:27:16.566Z,21.32
2022-08-04T09:29:48.870Z,22.53
2022-08-04T09:32:29.399Z,23.36
2022-08-04T09:35:08.587Z,22.86
2022-08-04T09:37:45.850Z,22.09
2022-08-04T09:40:31.142Z,22.28
2022-08-04T09:44:42.100Z,22.10
2022-08-04T09:46:34.385Z,23.00
2022-08-04T09:49:14.990Z,25.15
2022-08-04T09:51:57.690Z,21.89
2022-08-04T09:55:01.096Z,23.27
2022-08-04T09:57:42.292Z,21.24
2022-08-04T10:00:13.849Z,23.14
2022-08-04T10:02:45.271Z,22.87
2022-08-04T10:05:23.751Z,21.96
2022-08-04T10:08:16.198Z,22.25
2022-08-04T10:11:00.550Z,21.90
2022-08-04T10:13:31.454Z,20.32
2022-08-04T10:16:33.370Z,21.08
2022-08-04T10:19:23.559Z,21.49
2022-08-04T10:22:28.129Z,19.96
2022-08-04T10:25:37.444Z,20.52
2022-08-04T10:28:14.297Z,21.83
2022-08-04T10:30:52.557Z,21.27
2022-08-04T10:33:33.751Z,19.53
2022-08-04T10:36:05.110Z,20.23
2022-08-04T10:39:04.470Z,24.24
2022-08-04T10:41:56.144Z,22.66
2022-08-04T10:44:57.730Z,21.59
2022-08-04T10:47:32.602Z,19.10
2022-08-04T10:50:02.372Z,20.28
2022-08-04T10:52:34.652Z,20.31
2022-08-04T10:56:07.921Z,21.64
2022-08-04T10:58:20.570Z,20.66
2022-08-04T11:00:49.639Z,19.77
2022-08-04T11:03:25.194Z,19.92
2022-08-04T11:05:56.179Z,20.94
2022-08-04T11:08:45.773Z,20.69
2022-08-04T11:12:00.494Z,21.62
2022-08-04T11:14:33.793Z,21.25
2022-08-04T11:17:05.820Z,19.54
2022-08-04T11:19:44.720Z,19.27
2022-08-04T11:22:26.311Z,20.93
2022-08-04T11:25:14.584Z,20.64
2022-08-04T11:27:56.877Z,20.81
2022-08-04T11:30:25.859Z,19.04
2022-08-04T11:33:18.147Z,19.19
2022-08-04T11:36:17.257Z,20.33
2022-08-04T11:39:33.922Z,17.87
2022-08-04T11:42:16.662Z,17.78
2022-08-04T11:44:56.519Z,18.78
2022-08-04T11:47:24.854Z,20.09
2022-08-04T11:50:10.460Z,20.59
2022-08-04T11:52:41.393Z,19.83
2022-08-04T11:55:11.610Z,22.19
2022-08-04T11:57:40.312Z,20.58
2022-08-04T12:00:10.822Z,22.06
2022-08-04T12:03:10.200Z,20.02
2022-08-04T12:05:53.406Z,20.39
2022-08-04T12:08:56.641Z,21.17
2022-08-04T12:11:40.041Z,20.54
2022-08-04T12:14:21.046Z,20.39
2022-08-04T12:16:55.488Z,20.84
2022-08-04T12:19:38.631Z,21.14
2022-08-04T12:22:22.750Z,20.18
2022-08-04T12:25:08.632Z,20.39
2022-08-04T12:27:48.782Z,20.41
2022-08-04T12:30:57.310Z,20.55
2022-08-04T12:34:03.261Z,18.62
2022-08-04T12:36:56.651Z,19.55
2022-08-04T12:39:26.484Z,20.26
2022-08-04T12:42:05.096Z,20.57
2022-08-04T12:44:39.063Z,19.79
2022-08-04T12:47:26.805Z,18.53
2022-08-04T12:50:04.011Z,19.67
2022-08-04T12:55:32.044Z,19.93
2022-08-04T12:58:02.374Z,19.68
2022-08-04T13:00:40.742Z,19.80
2022-08-04T13:03:12.997Z,19.21
2022-08-04T13:05:42.079Z,20.34
2022-08-04T13:08:11.956Z,20.39
2022-08-04T13:10:47.825Z,21.26
2022-08-04T13:13:21.580Z,22.99
2022-08-04T13:15:59.899Z,22.48
2022-08-04T13:18:32.334Z,22.69
2022-08-04T13:21:22.829Z,22.14
2022-08-04T13:24:10.841Z,22.26
2022-08-04T13:27:03.772Z,23.21
2022-08-04T13:29:59.695Z,21.37
2022-08-04T13:32:28.050Z,21.83
2022-08-04T13:34:56.933Z,19.97
2022-08-04T13:37:35.445Z,20.08
2022-08-04T13:40:10.157Z,19.90
2022-08-04T13:42:39.000Z,20.19
2022-08-04T13:45:09.110Z,19.84
2022-08-04T13:47:38.814Z,18.73
2022-08-04T13:50:27.472Z,21.34
2022-08-04T13:53:00.142Z,21.81
2022-08-04T13:55:36.905Z,20.14
2022-08-04T13:58:10.270Z,20.30
2022-08-04T14:00:42.660Z,20.36
2022-08-04T14:03:19.095Z,19.69
2022-08-04T14:06:08.391Z,21.01
2022-08-04T14:08:46.143Z,19.99
2022-08-04T14:12:06.015Z,20.79
2022-08-04T14:14:17.353Z,21.20
2022-08-04T14:17:01.921Z,21.96
2022-08-04T14:19:50.781Z,20.35
2022-08-04T14:22:27.952Z,20.59
2022-08-04T14:25:04.631Z,20.98
2022-08-04T14:27:56.350Z,19.93
2022-08-04T14:30:31.759Z,20.06
2022-08-04T14:34:01.462Z,19.91
2022-08-04T14:35:59.198Z,19.86
2022-08-04T14:38:49.140Z,20.81
2022-08-04T14:41:20.288Z,19.55
2022-08-04T14:43:51.358Z,20.57
2022-08-04T14:46:20.303Z,20.76
2022-08-04T14:49:10.863Z,20.70
2022-08-04T14:51:46.948Z,21.23
2022-08-04T14:54:18.386Z,20.82
2022-08-04T14:56:58.140Z,21.27
2022-08-04T14:59:26.625Z,20.67
2022-08-04T15:02:01.202Z,20.60
2022-08-04T15:04:31.617Z,21.45
2022-08-04T15:07:04.472Z,19.64
2022-08-04T15:09:34.230Z,20.57
2022-08-04T15:12:04.534Z,20.75
2022-08-04T15:14:36.914Z,20.64
2022-08-04T15:17:12.498Z,20.42
2022-08-04T15:19:56.691Z,20.51
2022-08-04T15:22:25.035Z,21.14
2022-08-04T15:24:55.597Z,21.06
2022-08-04T15:27:30.497Z,20.92
2022-08-04T15:30:02.700Z,20.96
2022-08-04T15:32:37.670Z,21.79
2022-08-04T15:35:09.885Z,21.94
2022-08-04T15:38:02.742Z,21.28
2022-08-04T15:40:36.766Z,21.79
2022-08-04T15:43:23.270Z,23.18
2022-08-04T15:46:37.252Z,22.34
2022-08-04T15:48:46.359Z,21.89
2022-08-04T15:51:31.946Z,22.04
2022-08-04T15:54:02.436Z,21.14
2022-08-04T15:56:31.808Z,21.61
2022-08-04T15:58:59.676Z,22.43
2022-08-04T16:01:28.209Z,22.45
2022-08-04T16:03:59.882Z,21.97
2022-08-04T16:06:30.460Z,21.75
2022-08-04T16:09:03.632Z,22.00
2022-08-04T16:11:37.000Z,21.51
2022-08-04T16:14:06.722Z,22.29
2022-08-04T16:16:37.252Z,22.05
2022-08-04T16:19:16.869Z,22.41
2022-08-04T16:21:49.923Z,22.36
2022-08-04T16:24:22.132Z,22.40
2022-08-04T16:26:54.850Z,22.94
2022-08-04T16:29:26.556Z,21.64
2022-08-04T16:32:10.839Z,23.12
2022-08-04T16:34:55.468Z,22.91
2022-08-04T16:37:31.203Z,22.37
2022-08-04T16:40:33.696Z,22.27
2022-08-04T16:43:22.923Z,22.97
2022-08-04T16:45:59.686Z,22.33
2022-08-04T16:48:35.546Z,22.72
2022-08-04T16:51:15.429Z,24.10
2022-08-04T16:54:02.650Z,22.78
2022-08-04T16:56:35.320Z,23.07
2022-08-04T16:59:09.524Z,22.88
2022-08-04T17:01:46.688Z,24.61
2022-08-04T17:04:15.110Z,23.80
2022-08-04T17:06:44.902Z,24.00
2022-08-04T17:09:17.351Z,24.22
2022-08-04T17:11:47.238Z,24.81
2022-08-04T17:14:23.511Z,25.74
2022-08-04T17:16:53.240Z,26.12
2022-08-04T17:19:25.964Z,25.62
2022-08-04T17:22:04.300Z,27.58
2022-08-04T17:24:40.826Z,25.92
2022-08-04T17:28:19.303Z,25.63
2022-08-04T17:29:59.159Z,25.88
2022-08-04T17:32:27.606Z,25.63
2022-08-04T17:34:58.786Z,27.21
2022-08-04T17:37:40.848Z,28.40
2022-08-04T17:40:13.505Z,29.87
2022-08-04T17:42:44.967Z,28.92
2022-08-04T17:45:51.272Z,28.52
2022-08-04T17:48:09.238Z,29.24
2022-08-04T17:50:43.485Z,29.57
2022-08-04T17:53:13.259Z,28.73
2022-08-04T17:55:49.505Z,29.35
2022-08-04T17:58:20.862Z,29.21
2022-08-04T18:03:51.675Z,30.52
2022-08-04T18:06:25.815Z,30.50
2022-08-04T18:08:58.775Z,30.63
2022-08-04T18:11:29.707Z,30.78
2022-08-04T18:14:10.544Z,31.09
2022-08-04T18:16:45.489Z,31.94
2022-08-04T18:19:15.472Z,34.48
2022-08-04T18:21:59.371Z,33.87
2022-08-04T18:24:35.025Z,32.30
2022-08-04T18:27:06.457Z,34.11
2022-08-04T18:29:39.406Z,34.03
2022-08-04T18:32:09.125Z,34.23
2022-08-04T18:34:40.697Z,34.73
2022-08-04T18:38:05.171Z,35.10
2022-08-04T18:43:01.514Z,37.52
2022-08-04T18:45:34.646Z,37.02
2022-08-04T18:48:04.025Z,37.82
2022-08-04T18:51:11.237Z,38.01
2022-08-04T18:53:20.770Z,36.74
2022-08-04T18:58:39.764Z,39.52
2022-08-04T19:03:59.049Z,39.27
2022-08-04T19:06:27.415Z,39.35
2022-08-04T19:08:55.387Z,40.01
2022-08-04T19:11:53.992Z,40.42
2022-08-04T19:14:13.199Z,40.32
2022-08-04T19:16:46.079Z,40.53
2022-08-04T19:19:17.460Z,41.09
2022-08-04T19:22:01.298Z,40.99
2022-08-04T19:24:34.353Z,41.52
2022-08-04T19:27:06.859Z,41.37
2022-08-04T19:29:40.791Z,41.76
2022-08-04T19:32:14.502Z,41.73
2022-08-04T19:34:47.743Z,43.68
2022-08-04T19:37:57.627Z,41.69
2022-08-04T19:40:08.214Z,41.73
2022-08-04T19:42:37.923Z,41.83
2022-08-04T19:45:06.866Z,42.19
2022-08-04T19:48:11.186Z,42.36
2022-08-04T19:50:24.003Z,42.92
2022-08-04T19:52:52.890Z,43.09
2022-08-04T19:55:36.783Z,43.35
2022-08-04T19:58:08.564Z,43.76
2022-08-04T20:00:38.002Z,46.12
2022-08-04T20:03:11.544Z,45.24
2022-08-04T20:05:53.405Z,44.63
2022-08-04T20:08:27.960Z,42.99
2022-08-04T20:10:56.449Z,43.29
2022-08-04T20:13:37.073Z,43.29
2022-08-04T20:16:28.429Z,43.89
2022-08-04T20:18:59.499Z,43.69
2022-08-04T20:21:53.952Z,44.95
2022-08-04T20:24:38.115Z,44.40
2022-08-04T20:27:11.574Z,45.41
2022-08-04T20:29:49.330Z,45.31
2022-08-04T20:32:23.459Z,47.30
2022-08-04T20:34:53.459Z,47.19
2022-08-04T20:37:25.229Z,47.19
2022-08-04T20:39:55.612Z,45.71
2022-08-04T20:42:26.907Z,47.82
2022-08-04T20:44:56.219Z,46.14
2022-08-04T20:47:26.610Z,46.93
2022-08-04T20:49:59.320Z,46.72
2022-08-04T20:52:29.873Z,46.45
2022-08-04T20:54:57.713Z,46.45
2022-08-04T20:57:47.482Z,47.42
2022-08-04T21:00:14.189Z,47.17
2022-08-04T21:02:42.430Z,46.80
2022-08-04T21:05:12.510Z,48.01
2022-08-04T21:07:41.819Z,48.66
2022-08-04T21:10:12.484Z,48.04
2022-08-04T21:12:40.371Z,48.07
2022-08-04T21:15:13.416Z,49.01
2022-08-04T21:17:56.792Z,48.53
2022-08-04T21:20:32.141Z,48.46
2022-08-04T21:23:01.990Z,48.81
2022-08-04T21:25:30.384Z,49.69
2022-08-04T21:27:59.041Z,48.70
2022-08-04T21:30:37.066Z,48.89
2022-08-04T21:33:22.062Z,48.56
2022-08-04T21:35:55.068Z,50.38
2022-08-04T21:38:25.093Z,51.54
2022-08-04T21:41:01.891Z,50.99
2022-08-04T21:43:42.723Z,50.03
2022-08-04T21:46:11.750Z,49.47
2022-08-04T21:48:42.416Z,51.19
2022-08-04T21:51:59.150Z,50.75
2022-08-04T21:54:15.057Z,51.46
2022-08-04T21:56:51.419Z,51.12
2022-08-04T22:02:09.738Z,54.62
2022-08-04T22:04:37.850Z,52.38
2022-08-04T22:07:05.589Z,51.30
2022-08-04T22:09:38.492Z,51.52
2022-08-04T22:12:12.129Z,52.21
2022-08-04T22:14:40.745Z,51.59
2022-08-04T22:17:13.744Z,52.40
2022-08-04T22:19:55.861Z,52.36
2022-08-04T22:22:29.267Z,52.27
2022-08-04T22:25:01.810Z,51.87
2022-08-04T22:27:55.297Z,50.95
2022-08-04T22:30:24.414Z,52.39
2022-08-04T22:32:57.299Z,50.57
2022-08-04T22:35:36.063Z,50.58
2022-08-04T22:38:26.878Z,50.16
2022-08-04T22:41:01.855Z,48.41
2022-08-04T22:43:33.315Z,47.34
2022-08-04T22:46:06.520Z,47.91
2022-08-04T22:48:36.261Z,47.21
2022-08-04T22:51:06.409Z,46.84
2022-08-04T22:53:36.070Z,47.53
2022-08-04T22:56:10.713Z,47.33
2022-08-04T22:58:45.487Z,47.11
2022-08-04T23:01:15.744Z,48.49
2022-08-04T23:03:55.222Z,47.98
2022-08-04T23:06:28.349Z,50.39
2022-08-04T23:08:57.740Z,49.85
2022-08-04T23:11:33.366Z,49.40
2022-08-04T23:14:04.342Z,48.86
2022-08-04T23:16:40.299Z,48.58
2022-08-04T23:19:12.114Z,49.14
2022-08-04T23:21:47.710Z,49.49
2022-08-04T23:24:29.703Z,48.77
2022-08-04T23:26:59.401Z,48.76
2022-08-04T23:29:27.686Z,48.64
2022-08-04T23:32:15.616Z,48.86
2022-08-04T23:34:48.443Z,49.37
2022-08-04T23:37:16.645Z,48.91
2022-08-04T23:40:15.737Z,49.78
2022-08-04T23:42:32.654Z,48.81
2022-08-04T23:45:00.658Z,48.96
2022-08-04T23:48:16.754Z,49.09
2022-08-04T23:50:16.520Z,48.87
2022-08-04T23:52:44.696Z,49.88
2022-08-04T23:55:19.099Z,49.39
2022-08-04T23:58:06.015Z,49.84
